St Solene — FVDG — position and weather

sailwx.info

Track history (hours):
 
Tides and Currents Weather Stations Pressure Air Temp Water Temp Dewpoint Dewpoint Depression Visibility Wind Speed Wind Dir Waves Ship Positions

St Solene

Last reported at 2017-Mar-23 21:29 UTC. Time now 2017-Mar-23 22:12 UTC.
Position N 43°24' E 004°60'.

Length 104 m; draft 6.5 m.

Type: Tanker. MMSI: 226302000.

Date/timePositionNaut miles runAvg speedWind from/ knotsBaromVisibWave heightAir tempDewpointWater temp
2017-Mar-23 21:29N 43°24' E 004°60'0 0.0
2017-Mar-23 20:32N 43°24' E 004°60'0 0.0
2017-Mar-23 19:32N 43°24' E 004°60'0 0.0
2017-Mar-23 18:32N 43°24' E 004°60'0 0.0
2017-Mar-23 17:32N 43°24' E 004°60'0 0.1
2017-Mar-23 16:33N 43°24' E 004°60'175 4.0
2017-Mar-21 20:33N 41°20' E 002°11'0 0.0
2017-Mar-21 17:32N 41°20' E 002°12'0 0.0
2017-Mar-21 16:24N 41°20' E 002°12'0 0.0
2017-Mar-21 15:29N 41°20' E 002°12'0 0.0
2017-Mar-21 14:27N 41°20' E 002°12'0 0.0
2017-Mar-21 12:20N 41°20' E 002°12'0 0.0
2017-Mar-21 11:26N 41°20' E 002°12'0 0.0
2017-Mar-21 09:31N 41°20' E 002°11'0 0.0
2017-Mar-21 07:17N 41°20' E 002°12'0 0.0
2017-Mar-21 04:12N 41°20' E 002°12'0 0.0
2017-Mar-21 02:18N 41°20' E 002°12'0 0.0
2017-Mar-21 01:33N 41°20' E 002°12'0 0.1
2017-Mar-21 00:31N 41°20' E 002°12'0 0.0
2017-Mar-20 23:33N 41°20' E 002°12'0 0.0
2017-Mar-20 22:25N 41°20' E 002°12'0 0.0
2017-Mar-20 21:29N 41°20' E 002°12'0 0.0
2017-Mar-20 20:33N 41°20' E 002°12'0 0.1
2017-Mar-20 19:33N 41°20' E 002°12'0 0.0
2017-Mar-20 18:32N 41°20' E 002°12'0 0.0
2017-Mar-20 17:33N 41°20' E 002°12'0 0.0
2017-Mar-20 16:30N 41°20' E 002°12'0 0.0
2017-Mar-20 15:27N 41°20' E 002°12'0 0.0
2017-Mar-20 14:33N 41°20' E 002°12'0 0.0
2017-Mar-20 13:33N 41°20' E 002°12'0 0.0
2017-Mar-20 12:33N 41°20' E 002°12'0 0.1
2017-Mar-20 11:33N 41°20' E 002°12'8 6.7
2017-Mar-20 10:25N 41°19' E 002°22'7 8.3
2017-Mar-20 09:33N 41°21' E 002°31'8 8.4
2017-Mar-20 08:33N 41°24' E 002°41'8 8.3
2017-Mar-20 07:33N 41°27' E 002°51'8 8.2
2017-Mar-20 06:33N 41°30' E 003°02'12 8.3
2017-Mar-20 05:08N 41°34' E 003°16'5 8.1
2017-Mar-20 04:33N 41°35' E 003°22'11 8.9
2017-Mar-20 03:17N 41°39' E 003°37'266 7.2
2017-Mar-18 14:31N 43°12' E 009°14'6 5.8
2017-Mar-18 13:33N 43°14' E 009°22'8 6.9
2017-Mar-18 12:23N 43°15' E 009°32'7 8.6
2017-Mar-18 11:33N 43°17' E 009°42'9 9.0
2017-Mar-18 10:33N 43°18' E 009°54'9 9.0
2017-Mar-18 09:33N 43°19' E 010°06'8 8.1
2017-Mar-18 08:33N 43°27' E 010°09'8 7.7
2017-Mar-18 07:33N 43°32' E 010°17'1 1.4
2017-Mar-18 06:31N 43°34' E 010°18'0 0.0
2017-Mar-18 05:31N 43°34' E 010°18'0 0.0
2017-Mar-18 04:31N 43°34' E 010°18'0 0.0
2017-Mar-18 03:31N 43°34' E 010°18'0 0.0
2017-Mar-18 02:31N 43°34' E 010°18'0 0.0
2017-Mar-18 01:31N 43°34' E 010°18'0 0.0
2017-Mar-18 00:31N 43°34' E 010°18'0 0.0
2017-Mar-17 23:31N 43°34' E 010°18'0 0.0
2017-Mar-17 22:25N 43°34' E 010°18'0 0.0
2017-Mar-17 21:28N 43°34' E 010°18'0 0.0
2017-Mar-17 20:28N 43°34' E 010°18'0 0.0
2017-Mar-17 19:28N 43°34' E 010°18'0 0.0
2017-Mar-17 18:31N 43°34' E 010°18'0 0.0
2017-Mar-17 17:31N 43°34' E 010°18'0 0.0
2017-Mar-17 16:31N 43°34' E 010°18'0 0.0
2017-Mar-17 15:31N 43°34' E 010°18'0 0.0
2017-Mar-17 14:28N 43°34' E 010°18'0 0.0
2017-Mar-17 13:31N 43°34' E 010°18'0 0.0
2017-Mar-17 12:31N 43°34' E 010°18'0 0.0
2017-Mar-17 11:25N 43°34' E 010°18'4 4.3
2017-Mar-17 10:33N 43°31' E 010°15'10 9.5
2017-Mar-17 09:33N 43°24' E 010°05'1110.6
2017-Mar-17 08:33N 43°18' E 009°53'1111.4
2017-Mar-17 07:33N 43°16' E 009°38'1111.3
2017-Mar-17 06:33N 43°14' E 009°23'1211.5
2017-Mar-17 05:33N 43°12' E 009°07'1211.6
2017-Mar-17 04:33N 43°10' E 008°52'1311.6
2017-Mar-17 03:27N 43°07' E 008°35'1011.6
2017-Mar-17 02:33N 43°05' E 008°21'1211.7
2017-Mar-17 01:33N 43°02' E 008°05'1211.6
2017-Mar-17 00:33N 42°60' E 007°50'1211.7
2017-Mar-16 23:33N 42°57' E 007°34'1411.9
2017-Mar-16 22:23N 42°54' E 007°15'1011.6
2017-Mar-16 21:33N 42°52' E 007°03'1212.0
2017-Mar-16 20:33N 42°49' E 006°47'1212.5
2017-Mar-16 19:33N 42°47' E 006°30'2712.1
2017-Mar-16 17:18N 42°48' E 005°53'1012.2
2017-Mar-16 16:28N 42°51' E 005°40'1112.0
2017-Mar-16 15:33N 42°54' E 005°25'2310.2
2017-Mar-16 13:15N 43°10' E 005°02'1012.2
2017-Mar-16 12:26N 43°20' E 004°58'6 1.3
2017-Mar-16 07:30N 43°25' E 004°53'0 0.0
2017-Mar-16 06:27N 43°25' E 004°53'0 0.0
2017-Mar-16 05:33N 43°25' E 004°53'0 0.0
2017-Mar-16 04:27N 43°25' E 004°53'0 0.0
2017-Mar-16 03:30N 43°25' E 004°53'0 0.0
2017-Mar-16 02:30N 43°25' E 004°53'0 0.0
2017-Mar-16 01:30N 43°25' E 004°53'0 0.0
2017-Mar-16 00:33N 43°25' E 004°53'0 0.0
2017-Mar-15 23:30N 43°25' E 004°53'0 0.0
2017-Mar-15 22:24N 43°25' E 004°53'0 0.1
2017-Mar-15 21:33N 43°25' E 004°53'4 3.6
2017-Mar-15 20:33N 43°23' E 004°58'0 0.0
2017-Mar-15 19:33N 43°24' E 004°58'0 0.1
2017-Mar-15 18:33N 43°24' E 004°58'0 0.1
2017-Mar-15 17:33N 43°24' E 004°58'0 0.0
2017-Mar-15 16:33N 43°23' E 004°58'7 7.0
2017-Mar-15 15:33N 43°17' E 005°00'1211.1
2017-Mar-15 14:30N 43°06' E 005°06'5010.1
2017-Mar-15 09:33N 42°40' E 006°04'1110.7
2017-Mar-15 08:34N 42°35' E 006°17'1510.7
2017-Mar-15 07:07N 42°28' E 006°36'710.8
2017-Mar-15 06:29N 42°25' E 006°44'  
Track history (hours):
 
Tides and Currents Weather Stations Pressure Air Temp Water Temp Dewpoint Dewpoint Depression Visibility Wind Speed Wind Dir Waves Ship Positions

St Solene

Last reported at 2017-Mar-23 21:29 UTC. Time now 2017-Mar-23 22:12 UTC.
Position N 43°24' E 004°60'.

Length 104 m; draft 6.5 m.

Type: Tanker. MMSI: 226302000.

Date/timePositionNaut miles runAvg speedWind from/ knotsBaromVisibWave heightAir tempDewpointWater temp
2017-Mar-23 21:29N 43°24' E 004°60'0 0.0
2017-Mar-23 20:32N 43°24' E 004°60'0 0.0
2017-Mar-23 19:32N 43°24' E 004°60'0 0.0
2017-Mar-23 18:32N 43°24' E 004°60'0 0.0
2017-Mar-23 17:32N 43°24' E 004°60'0 0.1
2017-Mar-23 16:33N 43°24' E 004°60'175 4.0
2017-Mar-21 20:33N 41°20' E 002°11'0 0.0
2017-Mar-21 17:32N 41°20' E 002°12'0 0.0
2017-Mar-21 16:24N 41°20' E 002°12'0 0.0
2017-Mar-21 15:29N 41°20' E 002°12'0 0.0
2017-Mar-21 14:27N 41°20' E 002°12'0 0.0
2017-Mar-21 12:20N 41°20' E 002°12'0 0.0
2017-Mar-21 11:26N 41°20' E 002°12'0 0.0
2017-Mar-21 09:31N 41°20' E 002°11'0 0.0
2017-Mar-21 07:17N 41°20' E 002°12'0 0.0
2017-Mar-21 04:12N 41°20' E 002°12'0 0.0
2017-Mar-21 02:18N 41°20' E 002°12'0 0.0
2017-Mar-21 01:33N 41°20' E 002°12'0 0.1
2017-Mar-21 00:31N 41°20' E 002°12'0 0.0
2017-Mar-20 23:33N 41°20' E 002°12'0 0.0
2017-Mar-20 22:25N 41°20' E 002°12'0 0.0
2017-Mar-20 21:29N 41°20' E 002°12'0 0.0
2017-Mar-20 20:33N 41°20' E 002°12'0 0.1
2017-Mar-20 19:33N 41°20' E 002°12'0 0.0
2017-Mar-20 18:32N 41°20' E 002°12'0 0.0
2017-Mar-20 17:33N 41°20' E 002°12'0 0.0
2017-Mar-20 16:30N 41°20' E 002°12'0 0.0
2017-Mar-20 15:27N 41°20' E 002°12'0 0.0
2017-Mar-20 14:33N 41°20' E 002°12'0 0.0
2017-Mar-20 13:33N 41°20' E 002°12'0 0.0
2017-Mar-20 12:33N 41°20' E 002°12'0 0.1
2017-Mar-20 11:33N 41°20' E 002°12'8 6.7
2017-Mar-20 10:25N 41°19' E 002°22'7 8.3
2017-Mar-20 09:33N 41°21' E 002°31'8 8.4
2017-Mar-20 08:33N 41°24' E 002°41'8 8.3
2017-Mar-20 07:33N 41°27' E 002°51'8 8.2
2017-Mar-20 06:33N 41°30' E 003°02'12 8.3
2017-Mar-20 05:08N 41°34' E 003°16'5 8.1
2017-Mar-20 04:33N 41°35' E 003°22'11 8.9
2017-Mar-20 03:17N 41°39' E 003°37'266 7.2
2017-Mar-18 14:31N 43°12' E 009°14'6 5.8
2017-Mar-18 13:33N 43°14' E 009°22'8 6.9
2017-Mar-18 12:23N 43°15' E 009°32'7 8.6
2017-Mar-18 11:33N 43°17' E 009°42'9 9.0
2017-Mar-18 10:33N 43°18' E 009°54'9 9.0
2017-Mar-18 09:33N 43°19' E 010°06'8 8.1
2017-Mar-18 08:33N 43°27' E 010°09'8 7.7
2017-Mar-18 07:33N 43°32' E 010°17'1 1.4
2017-Mar-18 06:31N 43°34' E 010°18'0 0.0
2017-Mar-18 05:31N 43°34' E 010°18'0 0.0
2017-Mar-18 04:31N 43°34' E 010°18'0 0.0
2017-Mar-18 03:31N 43°34' E 010°18'0 0.0
2017-Mar-18 02:31N 43°34' E 010°18'0 0.0
2017-Mar-18 01:31N 43°34' E 010°18'0 0.0
2017-Mar-18 00:31N 43°34' E 010°18'0 0.0
2017-Mar-17 23:31N 43°34' E 010°18'0 0.0
2017-Mar-17 22:25N 43°34' E 010°18'0 0.0
2017-Mar-17 21:28N 43°34' E 010°18'0 0.0
2017-Mar-17 20:28N 43°34' E 010°18'0 0.0
2017-Mar-17 19:28N 43°34' E 010°18'0 0.0
2017-Mar-17 18:31N 43°34' E 010°18'0 0.0
2017-Mar-17 17:31N 43°34' E 010°18'0 0.0
2017-Mar-17 16:31N 43°34' E 010°18'0 0.0
2017-Mar-17 15:31N 43°34' E 010°18'0 0.0
2017-Mar-17 14:28N 43°34' E 010°18'0 0.0
2017-Mar-17 13:31N 43°34' E 010°18'0 0.0
2017-Mar-17 12:31N 43°34' E 010°18'0 0.0
2017-Mar-17 11:25N 43°34' E 010°18'4 4.3
2017-Mar-17 10:33N 43°31' E 010°15'10 9.5
2017-Mar-17 09:33N 43°24' E 010°05'1110.6
2017-Mar-17 08:33N 43°18' E 009°53'1111.4
2017-Mar-17 07:33N 43°16' E 009°38'1111.3
2017-Mar-17 06:33N 43°14' E 009°23'1211.5
2017-Mar-17 05:33N 43°12' E 009°07'1211.6
2017-Mar-17 04:33N 43°10' E 008°52'1311.6
2017-Mar-17 03:27N 43°07' E 008°35'1011.6
2017-Mar-17 02:33N 43°05' E 008°21'1211.7
2017-Mar-17 01:33N 43°02' E 008°05'1211.6
2017-Mar-17 00:33N 42°60' E 007°50'1211.7
2017-Mar-16 23:33N 42°57' E 007°34'1411.9
2017-Mar-16 22:23N 42°54' E 007°15'1011.6
2017-Mar-16 21:33N 42°52' E 007°03'1212.0
2017-Mar-16 20:33N 42°49' E 006°47'1212.5
2017-Mar-16 19:33N 42°47' E 006°30'2712.1
2017-Mar-16 17:18N 42°48' E 005°53'1012.2
2017-Mar-16 16:28N 42°51' E 005°40'1112.0
2017-Mar-16 15:33N 42°54' E 005°25'2310.2
2017-Mar-16 13:15N 43°10' E 005°02'1012.2
2017-Mar-16 12:26N 43°20' E 004°58'6 1.3
2017-Mar-16 07:30N 43°25' E 004°53'0 0.0
2017-Mar-16 06:27N 43°25' E 004°53'0 0.0
2017-Mar-16 05:33N 43°25' E 004°53'0 0.0
2017-Mar-16 04:27N 43°25' E 004°53'0 0.0
2017-Mar-16 03:30N 43°25' E 004°53'0 0.0
2017-Mar-16 02:30N 43°25' E 004°53'0 0.0
2017-Mar-16 01:30N 43°25' E 004°53'0 0.0
2017-Mar-16 00:33N 43°25' E 004°53'0 0.0
2017-Mar-15 23:30N 43°25' E 004°53'0 0.0
2017-Mar-15 22:24N 43°25' E 004°53'0 0.1
2017-Mar-15 21:33N 43°25' E 004°53'4 3.6
2017-Mar-15 20:33N 43°23' E 004°58'0 0.0
2017-Mar-15 19:33N 43°24' E 004°58'0 0.1
2017-Mar-15 18:33N 43°24' E 004°58'0 0.1
2017-Mar-15 17:33N 43°24' E 004°58'0 0.0
2017-Mar-15 16:33N 43°23' E 004°58'7 7.0
2017-Mar-15 15:33N 43°17' E 005°00'1211.1
2017-Mar-15 14:30N 43°06' E 005°06'5010.1
2017-Mar-15 09:33N 42°40' E 006°04'1110.7
2017-Mar-15 08:34N 42°35' E 006°17'1510.7
2017-Mar-15 07:07N 42°28' E 006°36'710.8
2017-Mar-15 06:29N 42°25' E 006°44'  

Dump ship's entire track history